Kezdőlap
METAR-TAF:

METAR-TAF

Repülőterek :

Casablanca, Marokkó

földrajzi szélesség: 33-34N, földrajzi hosszúság: 007-40W, magasság: 62 m

Jelenlegi meteorológiai megfigyelések

A jelentés 9 órával és 9 perccel ezelõtt készült, 19:00 UTC
Északkeleti szél 2 kt
Hőmérséklet 18°C
Páratartalom 83%
Légköri nyomás 1026 hPa
Látótávolság: 6000 m

METAR: GMMC 211900Z 04002KT 6000 NSC 18/15 Q1026 NOSIG

Idő: 05:09 (04:09 UTC)


TAF: hiányzik

Meteorológiai megfigyelések és előrejelzések több, mint 4000 repülőtéren (METAR és TAF jelentéseket).

A térképen piros és sárga pontok jelzik az elérhető meteorológiai állomásokat.

Mozgassa az egeret a pont fölött, hogy megjelenjen az állomás neve.

Azután kattintson az időjárási megfigyelések és előrejelzések megtekintéséhez.

A térkép megváltoztatása: kattintson a fekete keresztel jelölt zöld gombra ráközelítéshez, a vonallal jelölt zöld gombra távolításhoz, vagy a zöld nyilakra a szomszédos térképek eléréséhez.


METAR-TAF: